sensor_id;sensor_type;location;lat;lon;timestamp;pressure;altitude;pressure_sealevel;temperature;humidity
16481;BME280;44634;54.110;12.138;2023-04-05T00:02:13;102507.16;;;5.73;100.00
16481;BME280;44634;54.110;12.138;2023-04-05T00:04:45;102503.56;;;5.97;100.00
16481;BME280;44634;54.110;12.138;2023-04-05T00:07:18;102512.06;;;5.82;100.00
16481;BME280;44634;54.110;12.138;2023-04-05T00:09:47;102501.25;;;5.90;100.00
16481;BME280;44634;54.110;12.138;2023-04-05T00:12:15;102507.06;;;5.32;100.00
16481;BME280;44634;54.110;12.138;2023-04-05T00:14:43;102506.16;;;5.55;100.00
16481;BME280;44634;54.110;12.138;2023-04-05T00:17:11;102501.44;;;5.63;100.00
16481;BME280;44634;54.110;12.138;2023-04-05T00:19:39;102498.22;;;5.35;100.00
16481;BME280;44634;54.110;12.138;2023-04-05T00:22:10;102490.91;;;5.43;100.00
16481;BME280;44634;54.110;12.138;2023-04-05T00:24:38;102493.97;;;5.54;100.00
16481;BME280;44634;54.110;12.138;2023-04-05T00:27:07;102498.09;;;5.60;100.00
16481;BME280;44634;54.110;12.138;2023-04-05T00:29:35;102493.59;;;5.42;100.00
16481;BME280;44634;54.110;12.138;2023-04-05T00:32:03;102487.91;;;5.52;100.00
16481;BME280;44634;54.110;12.138;2023-04-05T00:34:31;102489.06;;;5.45;100.00
16481;BME280;44634;54.110;12.138;2023-04-05T00:36:59;102492.78;;;5.61;100.00
16481;BME280;44634;54.110;12.138;2023-04-05T00:39:28;102489.44;;;5.58;100.00
16481;BME280;44634;54.110;12.138;2023-04-05T00:41:56;102489.59;;;5.75;100.00
16481;BME280;44634;54.110;12.138;2023-04-05T00:44:24;102489.41;;;5.80;100.00
16481;BME280;44634;54.110;12.138;2023-04-05T00:46:52;102489.09;;;5.87;100.00
16481;BME280;44634;54.110;12.138;2023-04-05T00:49:19;102487.09;;;5.72;100.00
16481;BME280;44634;54.110;12.138;2023-04-05T00:51:47;102487.84;;;5.54;100.00
16481;BME280;44634;54.110;12.138;2023-04-05T00:54:16;102483.47;;;5.11;100.00
16481;BME280;44634;54.110;12.138;2023-04-05T00:56:46;102477.72;;;5.66;100.00
16481;BME280;44634;54.110;12.138;2023-04-05T00:59:14;102478.84;;;5.39;100.00
16481;BME280;44634;54.110;12.138;2023-04-05T01:01:41;102476.56;;;5.52;100.00
16481;BME280;44634;54.110;12.138;2023-04-05T01:04:21;102470.34;;;5.54;100.00
16481;BME280;44634;54.110;12.138;2023-04-05T01:06:59;102474.66;;;5.33;100.00
16481;BME280;44634;54.110;12.138;2023-04-05T01:09:52;102467.94;;;5.48;100.00
16481;BME280;44634;54.110;12.138;2023-04-05T01:12:24;102465.88;;;5.34;100.00
16481;BME280;44634;54.110;12.138;2023-04-05T01:14:54;102470.28;;;5.56;100.00
16481;BME280;44634;54.110;12.138;2023-04-05T01:17:24;102465.19;;;5.73;100.00
16481;BME280;44634;54.110;12.138;2023-04-05T01:19:55;102475.78;;;5.28;100.00
16481;BME280;44634;54.110;12.138;2023-04-05T01:28:43;102464.00;;;6.22;100.00
16481;BME280;44634;54.110;12.138;2023-04-05T01:31:34;102457.53;;;6.30;100.00
16481;BME280;44634;54.110;12.138;2023-04-05T01:34:07;102460.50;;;6.02;100.00
16481;BME280;44634;54.110;12.138;2023-04-05T01:36:42;102466.16;;;6.13;100.00
16481;BME280;44634;54.110;12.138;2023-04-05T01:39:14;102456.97;;;6.23;100.00
16481;BME280;44634;54.110;12.138;2023-04-05T01:41:43;102454.59;;;6.56;100.00
16481;BME280;44634;54.110;12.138;2023-04-05T01:44:11;102454.19;;;6.26;100.00
16481;BME280;44634;54.110;12.138;2023-04-05T01:46:40;102449.03;;;6.24;100.00
16481;BME280;44634;54.110;12.138;2023-04-05T01:49:09;102447.72;;;6.53;100.00
16481;BME280;44634;54.110;12.138;2023-04-05T01:51:37;102444.91;;;5.77;100.00
16481;BME280;44634;54.110;12.138;2023-04-05T01:54:07;102443.25;;;6.35;100.00
16481;BME280;44634;54.110;12.138;2023-04-05T01:56:35;102446.50;;;5.81;100.00
16481;BME280;44634;54.110;12.138;2023-04-05T01:59:03;102429.59;;;6.08;100.00
16481;BME280;44634;54.110;12.138;2023-04-05T02:01:31;102429.19;;;6.17;100.00
16481;BME280;44634;54.110;12.138;2023-04-05T02:04:00;102426.47;;;6.39;100.00
16481;BME280;44634;54.110;12.138;2023-04-05T02:06:28;102424.19;;;6.50;100.00
16481;BME280;44634;54.110;12.138;2023-04-05T02:08:57;102422.91;;;6.40;100.00
16481;BME280;44634;54.110;12.138;2023-04-05T02:11:25;102427.50;;;5.96;100.00
16481;BME280;44634;54.110;12.138;2023-04-05T02:13:52;102419.28;;;6.43;100.00
16481;BME280;44634;54.110;12.138;2023-04-05T02:16:20;102420.84;;;6.47;100.00
16481;BME280;44634;54.110;12.138;2023-04-05T02:18:48;102418.38;;;6.63;100.00
16481;BME280;44634;54.110;12.138;2023-04-05T02:21:18;102413.59;;;6.33;100.00
16481;BME280;44634;54.110;12.138;2023-04-05T02:23:47;102410.78;;;6.38;100.00
16481;BME280;44634;54.110;12.138;2023-04-05T02:26:15;102407.34;;;6.36;100.00
16481;BME280;44634;54.110;12.138;2023-04-05T02:28:42;102407.22;;;6.39;100.00
16481;BME280;44634;54.110;12.138;2023-04-05T02:31:10;102411.97;;;6.31;100.00
16481;BME280;44634;54.110;12.138;2023-04-05T02:33:39;102398.50;;;6.57;100.00
16481;BME280;44634;54.110;12.138;2023-04-05T02:36:07;102397.56;;;6.58;100.00
16481;BME280;44634;54.110;12.138;2023-04-05T02:38:37;102395.34;;;6.49;100.00
16481;BME280;44634;54.110;12.138;2023-04-05T02:41:07;102398.19;;;6.44;100.00
16481;BME280;44634;54.110;12.138;2023-04-05T02:43:35;102393.03;;;6.43;100.00
16481;BME280;44634;54.110;12.138;2023-04-05T02:46:03;102393.84;;;6.24;100.00
16481;BME280;44634;54.110;12.138;2023-04-05T02:48:31;102393.31;;;6.37;100.00
16481;BME280;44634;54.110;12.138;2023-04-05T02:50:59;102384.13;;;6.64;100.00
16481;BME280;44634;54.110;12.138;2023-04-05T02:53:26;102388.47;;;6.84;100.00
16481;BME280;44634;54.110;12.138;2023-04-05T02:55:56;102388.31;;;6.31;100.00
16481;BME280;44634;54.110;12.138;2023-04-05T02:58:25;102379.41;;;6.53;100.00
16481;BME280;44634;54.110;12.138;2023-04-05T03:00:53;102386.97;;;6.78;100.00
16481;BME280;44634;54.110;12.138;2023-04-05T03:03:22;102381.84;;;6.75;100.00
16481;BME280;44634;54.110;12.138;2023-04-05T03:05:57;102376.91;;;6.69;100.00
16481;BME280;44634;54.110;12.138;2023-04-05T03:08:25;102378.44;;;6.36;100.00
16481;BME280;44634;54.110;12.138;2023-04-05T03:10:55;102375.13;;;6.70;100.00
16481;BME280;44634;54.110;12.138;2023-04-05T03:13:23;102372.63;;;6.85;100.00
16481;BME280;44634;54.110;12.138;2023-04-05T03:15:52;102369.88;;;6.70;100.00
16481;BME280;44634;54.110;12.138;2023-04-05T03:18:20;102374.75;;;6.59;100.00
16481;BME280;44634;54.110;12.138;2023-04-05T03:20:51;102370.56;;;6.36;100.00
16481;BME280;44634;54.110;12.138;2023-04-05T03:23:22;102367.94;;;6.73;100.00
16481;BME280;44634;54.110;12.138;2023-04-05T03:25:53;102367.72;;;7.14;100.00
16481;BME280;44634;54.110;12.138;2023-04-05T03:28:24;102365.16;;;6.76;100.00
16481;BME280;44634;54.110;12.138;2023-04-05T03:30:51;102359.25;;;6.90;100.00
16481;BME280;44634;54.110;12.138;2023-04-05T03:33:19;102358.22;;;6.56;100.00
16481;BME280;44634;54.110;12.138;2023-04-05T03:35:48;102351.81;;;6.81;100.00
16481;BME280;44634;54.110;12.138;2023-04-05T03:38:16;102348.47;;;6.77;100.00
16481;BME280;44634;54.110;12.138;2023-04-05T03:40:44;102343.28;;;6.76;100.00
16481;BME280;44634;54.110;12.138;2023-04-05T03:43:12;102342.16;;;6.81;100.00
16481;BME280;44634;54.110;12.138;2023-04-05T03:45:41;102342.53;;;6.55;100.00
16481;BME280;44634;54.110;12.138;2023-04-05T03:48:09;102338.53;;;6.65;100.00
16481;BME280;44634;54.110;12.138;2023-04-05T03:50:37;102339.03;;;6.73;100.00
16481;BME280;44634;54.110;12.138;2023-04-05T03:53:05;102344.56;;;6.48;100.00
16481;BME280;44634;54.110;12.138;2023-04-05T03:55:33;102341.72;;;6.72;100.00
16481;BME280;44634;54.110;12.138;2023-04-05T03:58:00;102343.69;;;6.85;100.00
16481;BME280;44634;54.110;12.138;2023-04-05T04:00:28;102343.59;;;6.70;100.00
16481;BME280;44634;54.110;12.138;2023-04-05T04:02:57;102344.09;;;6.59;100.00
16481;BME280;44634;54.110;12.138;2023-04-05T04:05:25;102336.84;;;6.45;100.00
16481;BME280;44634;54.110;12.138;2023-04-05T04:07:53;102336.06;;;6.62;100.00
16481;BME280;44634;54.110;12.138;2023-04-05T04:10:21;102332.81;;;6.38;100.00
16481;BME280;44634;54.110;12.138;2023-04-05T04:12:48;102331.88;;;6.94;100.00
16481;BME280;44634;54.110;12.138;2023-04-05T04:15:17;102338.31;;;6.70;100.00
16481;BME280;44634;54.110;12.138;2023-04-05T04:17:44;102340.03;;;7.24;100.00
16481;BME280;44634;54.110;12.138;2023-04-05T04:20:13;102343.66;;;7.22;100.00
16481;BME280;44634;54.110;12.138;2023-04-05T04:22:41;102344.72;;;7.00;100.00
16481;BME280;44634;54.110;12.138;2023-04-05T04:25:10;102343.44;;;7.09;100.00
16481;BME280;44634;54.110;12.138;2023-04-05T04:27:42;102342.34;;;6.96;100.00
16481;BME280;44634;54.110;12.138;2023-04-05T04:30:12;102342.44;;;7.11;100.00
16481;BME280;44634;54.110;12.138;2023-04-05T04:32:41;102347.53;;;6.78;100.00
16481;BME280;44634;54.110;12.138;2023-04-05T04:35:22;102352.91;;;6.58;100.00
16481;BME280;44634;54.110;12.138;2023-04-05T04:37:53;102351.28;;;6.92;100.00
16481;BME280;44634;54.110;12.138;2023-04-05T04:40:23;102348.03;;;6.86;100.00
16481;BME280;44634;54.110;12.138;2023-04-05T04:42:52;102346.28;;;6.68;100.00
16481;BME280;44634;54.110;12.138;2023-04-05T04:45:20;102348.38;;;6.79;100.00
16481;BME280;44634;54.110;12.138;2023-04-05T04:47:48;102348.25;;;6.63;100.00
16481;BME280;44634;54.110;12.138;2023-04-05T04:50:20;102350.03;;;6.81;100.00
16481;BME280;44634;54.110;12.138;2023-04-05T04:52:48;102346.75;;;7.12;100.00
16481;BME280;44634;54.110;12.138;2023-04-05T04:55:16;102350.50;;;6.90;100.00
16481;BME280;44634;54.110;12.138;2023-04-05T04:57:43;102344.91;;;7.14;100.00
16481;BME280;44634;54.110;12.138;2023-04-05T05:00:12;102351.16;;;6.95;100.00
16481;BME280;44634;54.110;12.138;2023-04-05T05:02:41;102339.06;;;7.08;100.00
16481;BME280;44634;54.110;12.138;2023-04-05T05:05:10;102342.06;;;7.54;100.00
16481;BME280;44634;54.110;12.138;2023-04-05T05:07:40;102344.47;;;7.24;100.00
16481;BME280;44634;54.110;12.138;2023-04-05T05:10:09;102339.38;;;6.84;100.00
16481;BME280;44634;54.110;12.138;2023-04-05T05:12:37;102327.56;;;7.62;100.00
16481;BME280;44634;54.110;12.138;2023-04-05T05:15:06;102332.72;;;7.64;100.00
16481;BME280;44634;54.110;12.138;2023-04-05T05:17:34;102339.56;;;7.16;100.00
16481;BME280;44634;54.110;12.138;2023-04-05T05:20:03;102340.03;;;7.41;100.00
16481;BME280;44634;54.110;12.138;2023-04-05T05:22:36;102345.91;;;7.12;100.00
16481;BME280;44634;54.110;12.138;2023-04-05T05:25:07;102331.81;;;7.47;100.00
16481;BME280;44634;54.110;12.138;2023-04-05T05:27:35;102330.59;;;7.55;100.00
16481;BME280;44634;54.110;12.138;2023-04-05T05:30:03;102337.47;;;7.57;100.00
16481;BME280;44634;54.110;12.138;2023-04-05T05:32:31;102335.22;;;7.67;100.00
16481;BME280;44634;54.110;12.138;2023-04-05T05:34:59;102346.31;;;7.39;100.00
16481;BME280;44634;54.110;12.138;2023-04-05T05:37:31;102342.03;;;7.19;100.00
16481;BME280;44634;54.110;12.138;2023-04-05T05:39:59;102339.44;;;6.83;100.00
16481;BME280;44634;54.110;12.138;2023-04-05T05:42:29;102331.75;;;7.49;100.00
16481;BME280;44634;54.110;12.138;2023-04-05T05:45:01;102331.84;;;7.30;100.00
16481;BME280;44634;54.110;12.138;2023-04-05T05:47:29;102328.19;;;7.67;100.00
16481;BME280;44634;54.110;12.138;2023-04-05T05:49:57;102327.94;;;8.21;100.00
16481;BME280;44634;54.110;12.138;2023-04-05T05:52:25;102331.84;;;7.98;100.00
16481;BME280;44634;54.110;12.138;2023-04-05T05:54:52;102331.31;;;8.07;100.00
16481;BME280;44634;54.110;12.138;2023-04-05T05:57:20;102336.50;;;8.09;100.00
16481;BME280;44634;54.110;12.138;2023-04-05T05:59:49;102338.63;;;8.35;100.00
16481;BME280;44634;54.110;12.138;2023-04-05T06:02:18;102334.88;;;7.90;100.00
16481;BME280;44634;54.110;12.138;2023-04-05T06:04:46;102325.56;;;8.00;100.00
16481;BME280;44634;54.110;12.138;2023-04-05T06:07:15;102328.56;;;7.93;100.00
16481;BME280;44634;54.110;12.138;2023-04-05T06:09:42;102321.56;;;8.09;100.00
16481;BME280;44634;54.110;12.138;2023-04-05T06:12:11;102324.16;;;8.26;100.00
16481;BME280;44634;54.110;12.138;2023-04-05T06:14:39;102324.38;;;8.39;100.00
16481;BME280;44634;54.110;12.138;2023-04-05T06:17:08;102329.78;;;8.68;100.00
16481;BME280;44634;54.110;12.138;2023-04-05T06:19:36;102327.16;;;8.36;100.00
16481;BME280;44634;54.110;12.138;2023-04-05T06:22:03;102331.03;;;8.29;100.00
16481;BME280;44634;54.110;12.138;2023-04-05T06:24:31;102331.00;;;8.46;100.00
16481;BME280;44634;54.110;12.138;2023-04-05T06:26:59;102329.19;;;8.62;100.00
16481;BME280;44634;54.110;12.138;2023-04-05T06:29:27;102334.75;;;8.42;100.00
16481;BME280;44634;54.110;12.138;2023-04-05T06:31:56;102334.56;;;7.96;100.00
16481;BME280;44634;54.110;12.138;2023-04-05T06:34:25;102330.91;;;8.63;100.00
16481;BME280;44634;54.110;12.138;2023-04-05T06:36:53;102330.56;;;8.54;100.00
16481;BME280;44634;54.110;12.138;2023-04-05T06:39:21;102322.19;;;8.30;100.00
16481;BME280;44634;54.110;12.138;2023-04-05T06:41:49;102325.75;;;8.29;100.00
16481;BME280;44634;54.110;12.138;2023-04-05T06:44:16;102331.75;;;8.48;100.00
16481;BME280;44634;54.110;12.138;2023-04-05T06:46:44;102321.50;;;8.11;100.00
16481;BME280;44634;54.110;12.138;2023-04-05T06:49:12;102310.31;;;8.86;100.00
16481;BME280;44634;54.110;12.138;2023-04-05T06:51:41;102325.81;;;8.60;100.00
16481;BME280;44634;54.110;12.138;2023-04-05T06:54:09;102318.31;;;8.84;100.00
16481;BME280;44634;54.110;12.138;2023-04-05T06:56:37;102316.47;;;9.01;100.00
16481;BME280;44634;54.110;12.138;2023-04-05T06:59:05;102322.25;;;9.07;100.00
16481;BME280;44634;54.110;12.138;2023-04-05T07:01:33;102310.25;;;9.02;100.00
16481;BME280;44634;54.110;12.138;2023-04-05T07:04:01;102307.09;;;8.49;100.00
16481;BME280;44634;54.110;12.138;2023-04-05T07:06:29;102302.47;;;8.84;100.00
16481;BME280;44634;54.110;12.138;2023-04-05T07:09:00;102298.59;;;9.50;100.00
16481;BME280;44634;54.110;12.138;2023-04-05T07:11:29;102309.53;;;9.44;100.00
16481;BME280;44634;54.110;12.138;2023-04-05T07:13:58;102306.19;;;9.26;100.00
16481;BME280;44634;54.110;12.138;2023-04-05T07:16:26;102310.31;;;9.16;100.00
16481;BME280;44634;54.110;12.138;2023-04-05T07:18:55;102308.97;;;9.67;100.00
16481;BME280;44634;54.110;12.138;2023-04-05T07:21:23;102307.88;;;10.00;100.00
16481;BME280;44634;54.110;12.138;2023-04-05T07:23:52;102303.06;;;9.92;100.00
16481;BME280;44634;54.110;12.138;2023-04-05T07:26:22;102310.59;;;9.56;100.00
16481;BME280;44634;54.110;12.138;2023-04-05T07:28:52;102293.63;;;10.02;100.00
16481;BME280;44634;54.110;12.138;2023-04-05T07:31:20;102296.25;;;9.60;100.00
16481;BME280;44634;54.110;12.138;2023-04-05T07:33:48;102286.66;;;10.01;100.00
16481;BME280;44634;54.110;12.138;2023-04-05T07:36:15;102281.81;;;8.77;100.00
16481;BME280;44634;54.110;12.138;2023-04-05T07:38:43;102285.19;;;10.10;100.00
16481;BME280;44634;54.110;12.138;2023-04-05T07:41:11;102276.94;;;9.59;100.00
16481;BME280;44634;54.110;12.138;2023-04-05T07:43:43;102283.63;;;9.79;100.00
16481;BME280;44634;54.110;12.138;2023-04-05T07:46:11;102279.75;;;10.81;100.00
16481;BME280;44634;54.110;12.138;2023-04-05T07:48:38;102287.34;;;10.46;100.00
16481;BME280;44634;54.110;12.138;2023-04-05T07:51:08;102290.97;;;10.72;100.00
16481;BME280;44634;54.110;12.138;2023-04-05T07:53:36;102276.50;;;10.90;100.00
16481;BME280;44634;54.110;12.138;2023-04-05T07:56:05;102283.28;;;10.67;100.00
16481;BME280;44634;54.110;12.138;2023-04-05T07:58:34;102279.06;;;10.65;100.00
16481;BME280;44634;54.110;12.138;2023-04-05T08:01:03;102268.28;;;11.08;100.00
16481;BME280;44634;54.110;12.138;2023-04-05T08:03:31;102277.31;;;10.78;100.00
16481;BME280;44634;54.110;12.138;2023-04-05T08:06:08;102285.00;;;11.08;100.00
16481;BME280;44634;54.110;12.138;2023-04-05T08:08:37;102273.38;;;10.44;100.00
16481;BME280;44634;54.110;12.138;2023-04-05T08:11:04;102277.31;;;10.78;100.00
16481;BME280;44634;54.110;12.138;2023-04-05T08:13:32;102275.09;;;11.75;100.00
16481;BME280;44634;54.110;12.138;2023-04-05T08:16:00;102274.06;;;10.33;100.00
16481;BME280;44634;54.110;12.138;2023-04-05T08:18:29;102273.59;;;11.71;100.00
16481;BME280;44634;54.110;12.138;2023-04-05T08:20:57;102277.69;;;11.12;100.00
16481;BME280;44634;54.110;12.138;2023-04-05T08:23:25;102270.22;;;11.18;100.00
16481;BME280;44634;54.110;12.138;2023-04-05T08:25:53;102263.03;;;12.33;100.00
16481;BME280;44634;54.110;12.138;2023-04-05T08:28:21;102279.97;;;11.56;100.00
16481;BME280;44634;54.110;12.138;2023-04-05T08:30:52;102273.72;;;11.31;100.00
16481;BME280;44634;54.110;12.138;2023-04-05T08:33:20;102276.78;;;11.38;100.00
16481;BME280;44634;54.110;12.138;2023-04-05T08:35:49;102260.19;;;12.24;100.00
16481;BME280;44634;54.110;12.138;2023-04-05T08:38:16;102266.31;;;11.75;100.00
16481;BME280;44634;54.110;12.138;2023-04-05T08:40:46;102262.69;;;12.38;100.00
16481;BME280;44634;54.110;12.138;2023-04-05T08:43:18;102251.25;;;13.20;94.81
16481;BME280;44634;54.110;12.138;2023-04-05T08:45:50;102252.94;;;13.44;97.83
16481;BME280;44634;54.110;12.138;2023-04-05T08:48:19;102245.94;;;13.20;100.00
16481;BME280;44634;54.110;12.138;2023-04-05T08:50:52;102258.31;;;12.13;100.00
16481;BME280;44634;54.110;12.138;2023-04-05T08:53:20;102253.16;;;11.86;100.00
16481;BME280;44634;54.110;12.138;2023-04-05T08:55:48;102255.81;;;12.59;100.00
16481;BME280;44634;54.110;12.138;2023-04-05T08:58:19;102253.19;;;12.23;96.89
16481;BME280;44634;54.110;12.138;2023-04-05T09:00:49;102251.47;;;11.72;100.00
16481;BME280;44634;54.110;12.138;2023-04-05T09:03:20;102252.09;;;12.01;100.00
16481;BME280;44634;54.110;12.138;2023-04-05T09:05:50;102242.78;;;13.26;98.84
16481;BME280;44634;54.110;12.138;2023-04-05T09:08:18;102246.38;;;11.95;100.00
16481;BME280;44634;54.110;12.138;2023-04-05T09:10:48;102236.75;;;12.89;100.00
16481;BME280;44634;54.110;12.138;2023-04-05T09:13:18;102244.97;;;12.97;92.81
16481;BME280;44634;54.110;12.138;2023-04-05T09:15:46;102235.13;;;13.10;86.18
16481;BME280;44634;54.110;12.138;2023-04-05T09:18:14;102251.63;;;12.20;91.97
16481;BME280;44634;54.110;12.138;2023-04-05T09:21:01;102235.81;;;12.66;93.13
16481;BME280;44634;54.110;12.138;2023-04-05T09:23:29;102233.34;;;12.76;92.90
16481;BME280;44634;54.110;12.138;2023-04-05T09:25:57;102242.56;;;12.94;79.82
16481;BME280;44634;54.110;12.138;2023-04-05T09:28:39;102238.19;;;12.58;85.99
16481;BME280;44634;54.110;12.138;2023-04-05T09:31:08;102240.66;;;12.72;77.09
16481;BME280;44634;54.110;12.138;2023-04-05T09:33:36;102245.22;;;12.23;84.81
16481;BME280;44634;54.110;12.138;2023-04-05T09:36:06;102246.28;;;12.33;88.36
16481;BME280;44634;54.110;12.138;2023-04-05T09:38:44;102229.84;;;12.87;73.72
16481;BME280;44634;54.110;12.138;2023-04-05T09:41:13;102233.16;;;13.01;63.58
16481;BME280;44634;54.110;12.138;2023-04-05T09:43:41;102227.34;;;13.87;56.76
16481;BME280;44634;54.110;12.138;2023-04-05T09:46:28;102225.31;;;13.91;54.52
16481;BME280;44634;54.110;12.138;2023-04-05T09:48:57;102226.28;;;13.34;57.52
16481;BME280;44634;54.110;12.138;2023-04-05T09:51:33;102229.25;;;12.83;76.81
16481;BME280;44634;54.110;12.138;2023-04-05T09:54:02;102224.34;;;13.58;77.30
16481;BME280;44634;54.110;12.138;2023-04-05T09:56:34;102225.06;;;13.38;77.23
16481;BME280;44634;54.110;12.138;2023-04-05T09:59:06;102234.06;;;12.54;96.81
16481;BME280;44634;54.110;12.138;2023-04-05T10:01:36;102229.34;;;11.60;99.36
16481;BME280;44634;54.110;12.138;2023-04-05T10:04:07;102222.97;;;12.84;95.22
16481;BME280;44634;54.110;12.138;2023-04-05T10:06:37;102234.28;;;11.78;100.00
16481;BME280;44634;54.110;12.138;2023-04-05T10:09:07;102231.22;;;11.84;100.00
16481;BME280;44634;54.110;12.138;2023-04-05T10:11:36;102239.19;;;11.58;100.00
16481;BME280;44634;54.110;12.138;2023-04-05T10:14:05;102223.16;;;11.85;100.00
16481;BME280;44634;54.110;12.138;2023-04-05T10:16:37;102233.84;;;12.33;93.28
16481;BME280;44634;54.110;12.138;2023-04-05T10:19:15;102225.97;;;12.08;90.86
16481;BME280;44634;54.110;12.138;2023-04-05T10:21:46;102211.03;;;13.25;87.80
16481;BME280;44634;54.110;12.138;2023-04-05T10:24:19;102232.41;;;11.80;97.55
16481;BME280;44634;54.110;12.138;2023-04-05T10:26:58;102215.41;;;12.91;78.20
16481;BME280;44634;54.110;12.138;2023-04-05T10:29:36;102222.00;;;12.26;89.58
16481;BME280;44634;54.110;12.138;2023-04-05T10:32:10;102220.69;;;12.56;83.65
16481;BME280;44634;54.110;12.138;2023-04-05T10:34:43;102213.88;;;12.40;87.51
16481;BME280;44634;54.110;12.138;2023-04-05T10:37:29;102212.06;;;12.41;92.33
16481;BME280;44634;54.110;12.138;2023-04-05T10:40:03;102193.63;;;14.95;74.60
16481;BME280;44634;54.110;12.138;2023-04-05T10:42:41;102206.69;;;13.57;65.40
16481;BME280;44634;54.110;12.138;2023-04-05T10:45:12;102188.75;;;15.21;59.89
16481;BME280;44634;54.110;12.138;2023-04-05T10:47:46;102200.66;;;13.33;67.80
16481;BME280;44634;54.110;12.138;2023-04-05T10:50:21;102186.72;;;14.51;63.78
16481;BME280;44634;54.110;12.138;2023-04-05T10:52:51;102195.50;;;14.63;55.71
16481;BME280;44634;54.110;12.138;2023-04-05T10:55:19;102184.06;;;16.44;47.51
16481;BME280;44634;54.110;12.138;2023-04-05T10:57:48;102171.28;;;16.76;47.50
16481;BME280;44634;54.110;12.138;2023-04-05T11:00:17;102167.75;;;16.18;46.48
16481;BME280;44634;54.110;12.138;2023-04-05T11:02:47;102172.97;;;16.39;46.64
16481;BME280;44634;54.110;12.138;2023-04-05T11:05:29;102169.16;;;16.12;48.50
16481;BME280;44634;54.110;12.138;2023-04-05T11:08:06;102174.63;;;16.30;48.87
16481;BME280;44634;54.110;12.138;2023-04-05T11:10:36;102174.88;;;15.58;52.46
16481;BME280;44634;54.110;12.138;2023-04-05T11:13:06;102174.13;;;15.15;52.74
16481;BME280;44634;54.110;12.138;2023-04-05T11:15:35;102170.03;;;15.42;48.58
16481;BME280;44634;54.110;12.138;2023-04-05T11:18:08;102151.13;;;16.91;46.02
16481;BME280;44634;54.110;12.138;2023-04-05T11:20:44;102146.59;;;17.76;45.90
16481;BME280;44634;54.110;12.138;2023-04-05T11:23:15;102136.41;;;18.07;45.40
16481;BME280;44634;54.110;12.138;2023-04-05T11:25:47;102139.22;;;16.86;46.31
16481;BME280;44634;54.110;12.138;2023-04-05T11:28:28;102152.34;;;15.71;50.11
16481;BME280;44634;54.110;12.138;2023-04-05T11:31:11;102151.16;;;15.95;52.43
16481;BME280;44634;54.110;12.138;2023-04-05T11:33:56;102143.47;;;16.50;51.80
16481;BME280;44634;54.110;12.138;2023-04-05T11:36:35;102145.19;;;14.16;62.93
16481;BME280;44634;54.110;12.138;2023-04-05T11:39:23;102149.91;;;14.24;68.11
16481;BME280;44634;54.110;12.138;2023-04-05T11:41:59;102140.19;;;15.98;61.23
16481;BME280;44634;54.110;12.138;2023-04-05T11:44:28;102148.59;;;15.43;51.17
16481;BME280;44634;54.110;12.138;2023-04-05T11:47:03;102133.03;;;17.87;49.05
16481;BME280;44634;54.110;12.138;2023-04-05T11:49:32;102157.25;;;14.32;62.71
16481;BME280;44634;54.110;12.138;2023-04-05T11:52:09;102148.09;;;14.56;66.50
16481;BME280;44634;54.110;12.138;2023-04-05T11:54:39;102146.59;;;15.76;67.83
16481;BME280;44634;54.110;12.138;2023-04-05T11:57:12;102157.47;;;13.96;84.37
16481;BME280;44634;54.110;12.138;2023-04-05T11:59:41;102162.50;;;13.23;94.48
16481;BME280;44634;54.110;12.138;2023-04-05T12:02:10;102156.88;;;14.36;76.29
16481;BME280;44634;54.110;12.138;2023-04-05T12:04:38;102165.53;;;12.83;97.10
16481;BME280;44634;54.110;12.138;2023-04-05T12:07:11;102162.50;;;13.23;97.76
16481;BME280;44634;54.110;12.138;2023-04-05T12:10:04;102152.16;;;12.85;100.00
16481;BME280;44634;54.110;12.138;2023-04-05T12:12:35;102165.00;;;13.02;100.00
16481;BME280;44634;54.110;12.138;2023-04-05T12:15:05;102157.03;;;13.02;97.95
16481;BME280;44634;54.110;12.138;2023-04-05T12:17:41;102154.09;;;12.47;100.00
16481;BME280;44634;54.110;12.138;2023-04-05T12:20:10;102157.75;;;13.04;100.00
16481;BME280;44634;54.110;12.138;2023-04-05T12:22:40;102155.47;;;13.89;88.40
16481;BME280;44634;54.110;12.138;2023-04-05T12:25:10;102161.47;;;13.13;91.84
16481;BME280;44634;54.110;12.138;2023-04-05T12:27:38;102140.91;;;16.00;67.03
16481;BME280;44634;54.110;12.138;2023-04-05T12:30:08;102150.09;;;15.06;68.01
16481;BME280;44634;54.110;12.138;2023-04-05T12:32:40;102128.84;;;16.44;61.76
16481;BME280;44634;54.110;12.138;2023-04-05T12:35:12;102136.56;;;16.09;68.98
16481;BME280;44634;54.110;12.138;2023-04-05T12:37:40;102125.19;;;16.16;68.02
16481;BME280;44634;54.110;12.138;2023-04-05T12:40:10;102139.41;;;13.68;88.93
16481;BME280;44634;54.110;12.138;2023-04-05T12:42:39;102131.53;;;14.21;90.74
16481;BME280;44634;54.110;12.138;2023-04-05T12:45:10;102133.44;;;14.83;91.61
16481;BME280;44634;54.110;12.138;2023-04-05T12:47:49;102133.16;;;15.87;73.94
16481;BME280;44634;54.110;12.138;2023-04-05T12:50:18;102126.00;;;15.47;84.73
16481;BME280;44634;54.110;12.138;2023-04-05T12:52:53;102119.34;;;16.98;73.93
16481;BME280;44634;54.110;12.138;2023-04-05T12:55:22;102131.69;;;15.33;80.06
16481;BME280;44634;54.110;12.138;2023-04-05T12:57:54;102124.72;;;15.72;76.03
16481;BME280;44634;54.110;12.138;2023-04-05T13:00:26;102139.78;;;13.75;85.42